createdAt,value
2022-12-09T00:01:35.608Z,0.66
2022-12-09T00:03:58.147Z,0.67
2022-12-09T00:06:25.744Z,0.70
2022-12-09T00:08:48.483Z,0.67
2022-12-09T00:11:11.128Z,0.73
2022-12-09T00:13:33.595Z,0.73
2022-12-09T00:15:56.910Z,0.78
2022-12-09T00:18:19.524Z,0.82
2022-12-09T00:20:41.995Z,0.85
2022-12-09T00:23:04.443Z,0.85
2022-12-09T00:25:26.785Z,0.81
2022-12-09T00:27:49.071Z,0.80
2022-12-09T00:30:12.101Z,0.81
2022-12-09T00:32:34.667Z,0.79
2022-12-09T00:34:57.300Z,0.74
2022-12-09T00:37:19.739Z,0.75
2022-12-09T00:39:42.332Z,0.77
2022-12-09T00:42:04.686Z,0.78
2022-12-09T00:44:27.150Z,0.76
2022-12-09T00:46:49.664Z,0.75
2022-12-09T00:49:12.160Z,0.68
2022-12-09T00:51:34.528Z,0.68
2022-12-09T00:53:56.937Z,0.65
2022-12-09T00:56:19.381Z,0.63
2022-12-09T00:58:41.830Z,0.57
2022-12-09T01:01:04.258Z,0.65
2022-12-09T01:03:26.885Z,0.65
2022-12-09T01:05:49.404Z,0.61
2022-12-09T01:08:12.278Z,0.65
2022-12-09T01:10:35.878Z,0.62
2022-12-09T01:12:58.278Z,0.69
2022-12-09T01:15:20.653Z,0.75
2022-12-09T01:17:43.123Z,0.75
2022-12-09T01:20:07.691Z,0.81
2022-12-09T01:22:30.205Z,0.82
2022-12-09T01:24:52.563Z,0.83
2022-12-09T01:27:14.962Z,0.81
2022-12-09T01:29:37.277Z,0.85
2022-12-09T01:31:59.715Z,0.87
2022-12-09T01:34:22.081Z,0.80
2022-12-09T01:36:44.705Z,0.82
2022-12-09T01:39:07.131Z,0.83
2022-12-09T01:41:29.625Z,0.85
2022-12-09T01:44:19.505Z,0.85
2022-12-09T01:46:42.152Z,0.91
2022-12-09T01:49:05.209Z,0.91
2022-12-09T01:51:29.805Z,0.93
2022-12-09T01:53:52.699Z,0.94
2022-12-09T01:56:29.716Z,0.97
2022-12-09T01:58:52.295Z,0.95
2022-12-09T02:01:16.455Z,1.01
2022-12-09T02:03:39.004Z,1.00
2022-12-09T02:06:01.454Z,1.01
2022-12-09T02:08:24.199Z,1.06
2022-12-09T02:11:09.928Z,1.06
2022-12-09T02:14:03.366Z,1.01
2022-12-09T02:16:26.462Z,0.99
2022-12-09T02:19:27.330Z,1.00
2022-12-09T02:22:00.102Z,0.98
2022-12-09T02:24:41.955Z,1.02
2022-12-09T02:27:17.753Z,0.98
2022-12-09T02:30:01.900Z,1.02
2022-12-09T02:33:01.543Z,0.96
2022-12-09T02:35:56.969Z,1.02
2022-12-09T02:38:30.831Z,1.04
2022-12-09T02:41:07.556Z,1.04
2022-12-09T02:43:42.083Z,1.01
2022-12-09T02:46:09.052Z,1.00
2022-12-09T02:48:36.706Z,0.97
2022-12-09T02:50:59.431Z,0.99
2022-12-09T02:53:21.813Z,0.98
2022-12-09T02:55:45.082Z,0.99
2022-12-09T02:58:07.376Z,0.96
2022-12-09T03:00:30.097Z,0.92
2022-12-09T03:02:56.201Z,0.90
2022-12-09T03:05:36.878Z,0.89
2022-12-09T03:08:11.132Z,0.91
2022-12-09T03:10:57.204Z,0.89
2022-12-09T03:14:06.209Z,0.82
2022-12-09T03:16:35.935Z,0.84
2022-12-09T03:19:24.216Z,0.80
2022-12-09T03:21:48.180Z,0.80
2022-12-09T03:24:10.959Z,0.80
2022-12-09T03:26:33.895Z,0.75
2022-12-09T03:28:56.468Z,0.75
2022-12-09T03:31:20.420Z,0.72
2022-12-09T03:33:43.732Z,0.73
2022-12-09T03:36:06.977Z,0.69
2022-12-09T03:38:32.063Z,0.65
2022-12-09T03:41:31.527Z,0.62
2022-12-09T03:44:13.241Z,0.69
2022-12-09T03:46:35.657Z,0.70
2022-12-09T03:48:58.087Z,0.71
2022-12-09T03:51:40.014Z,0.69
2022-12-09T03:54:32.928Z,0.67
2022-12-09T03:56:57.733Z,0.67
2022-12-09T03:59:20.515Z,0.71
2022-12-09T04:01:43.964Z,0.69
2022-12-09T04:04:06.472Z,0.71
2022-12-09T04:06:28.955Z,0.74
2022-12-09T04:08:51.371Z,0.76
2022-12-09T04:11:13.811Z,0.78
2022-12-09T04:13:36.186Z,0.82
2022-12-09T04:15:58.677Z,0.78
2022-12-09T04:18:21.113Z,0.84
2022-12-09T04:20:43.460Z,0.82
2022-12-09T04:23:06.034Z,0.81
2022-12-09T04:25:28.526Z,0.84
2022-12-09T04:27:51.078Z,0.81
2022-12-09T04:30:13.932Z,0.85
2022-12-09T04:32:37.262Z,0.83
2022-12-09T04:35:00.019Z,0.80
2022-12-09T04:37:22.601Z,0.78
2022-12-09T04:39:48.649Z,0.78
2022-12-09T04:42:11.120Z,0.85
2022-12-09T04:44:33.520Z,0.88
2022-12-09T04:46:56.238Z,0.93
2022-12-09T04:49:18.701Z,0.97
2022-12-09T04:51:41.095Z,0.98
2022-12-09T04:54:03.866Z,0.97
2022-12-09T04:56:26.356Z,0.96
2022-12-09T04:58:49.868Z,0.95
2022-12-09T05:01:24.978Z,0.94
2022-12-09T05:03:53.428Z,0.97
2022-12-09T05:06:16.465Z,0.98
2022-12-09T05:08:39.901Z,0.98
2022-12-09T05:11:02.692Z,1.00
2022-12-09T05:13:27.427Z,1.00
2022-12-09T05:15:50.021Z,1.03
2022-12-09T05:18:12.669Z,1.07
2022-12-09T05:20:35.451Z,1.08
2022-12-09T05:22:57.896Z,1.08
2022-12-09T05:25:20.392Z,1.08
2022-12-09T05:27:42.901Z,1.10
2022-12-09T05:30:07.332Z,1.12
2022-12-09T05:32:30.811Z,1.11
2022-12-09T05:34:53.374Z,1.10
2022-12-09T05:37:16.044Z,1.12
2022-12-09T05:39:39.190Z,1.11
2022-12-09T05:42:01.811Z,1.13
2022-12-09T05:44:24.431Z,1.11
2022-12-09T05:46:46.976Z,1.07
2022-12-09T05:49:09.558Z,1.07
2022-12-09T05:51:32.341Z,1.05
2022-12-09T05:53:55.105Z,1.03
2022-12-09T05:56:18.908Z,0.97
2022-12-09T05:58:41.571Z,0.98
2022-12-09T06:01:07.437Z,0.99
2022-12-09T06:03:30.600Z,0.94
2022-12-09T06:05:53.510Z,0.91
2022-12-09T06:08:16.266Z,0.91
2022-12-09T06:10:40.493Z,0.90
2022-12-09T06:13:03.142Z,0.88
2022-12-09T06:15:31.245Z,0.84
2022-12-09T06:17:55.825Z,0.84
2022-12-09T06:20:18.870Z,0.82
2022-12-09T06:22:41.318Z,0.77
2022-12-09T06:25:04.062Z,0.73
2022-12-09T06:27:26.464Z,0.68
2022-12-09T06:29:48.978Z,0.69
2022-12-09T06:32:11.612Z,0.66
2022-12-09T06:34:34.310Z,0.64
2022-12-09T06:36:57.215Z,0.67
2022-12-09T06:39:19.984Z,0.65
2022-12-09T06:41:43.047Z,0.62
2022-12-09T06:44:05.686Z,0.59
2022-12-09T06:46:29.256Z,0.57
2022-12-09T06:48:53.033Z,0.61
2022-12-09T06:51:16.998Z,0.57
2022-12-09T06:53:39.722Z,0.47
2022-12-09T06:56:11.111Z,0.51
2022-12-09T06:58:34.544Z,0.55
2022-12-09T07:01:03.728Z,0.49
2022-12-09T07:03:26.349Z,0.49
2022-12-09T07:05:50.004Z,0.58
2022-12-09T07:08:12.690Z,0.56
2022-12-09T07:10:36.891Z,0.56
2022-12-09T07:12:59.895Z,0.49
2022-12-09T07:15:22.349Z,0.47
2022-12-09T07:17:44.690Z,0.45
2022-12-09T07:20:08.461Z,0.50
2022-12-09T07:22:33.709Z,0.49
2022-12-09T07:24:56.087Z,0.50
2022-12-09T07:27:19.737Z,0.56
2022-12-09T07:29:42.635Z,0.51
2022-12-09T07:32:05.570Z,0.48
2022-12-09T07:34:28.301Z,0.52
2022-12-09T07:36:50.797Z,0.52
2022-12-09T07:39:16.270Z,0.54
2022-12-09T07:41:39.487Z,0.54
2022-12-09T07:44:02.086Z,0.58
2022-12-09T07:46:27.543Z,0.56
2022-12-09T07:48:50.325Z,0.59
2022-12-09T07:51:13.325Z,0.50
2022-12-09T07:53:36.560Z,0.50
2022-12-09T07:56:06.656Z,0.51
2022-12-09T07:58:29.412Z,0.49
2022-12-09T08:00:52.010Z,0.45
2022-12-09T08:03:14.691Z,0.47
2022-12-09T08:05:37.575Z,0.52
2022-12-09T08:08:00.857Z,0.41
2022-12-09T08:10:23.798Z,0.45
2022-12-09T08:12:46.232Z,0.55
2022-12-09T08:15:09.508Z,0.56
2022-12-09T08:17:33.526Z,0.56
2022-12-09T08:19:56.518Z,0.52
2022-12-09T08:22:19.313Z,0.59
2022-12-09T08:24:41.957Z,0.59
2022-12-09T08:27:04.571Z,0.54
2022-12-09T08:29:28.546Z,0.57
2022-12-09T08:31:51.397Z,0.57
2022-12-09T08:34:14.705Z,0.65
2022-12-09T08:36:37.902Z,0.73
2022-12-09T08:39:01.610Z,0.70
2022-12-09T08:41:35.918Z,0.71
2022-12-09T08:43:58.652Z,0.76
2022-12-09T08:46:21.922Z,0.78
2022-12-09T08:48:44.847Z,0.79
2022-12-09T08:51:08.556Z,0.80
2022-12-09T08:53:30.982Z,0.84
2022-12-09T08:55:53.467Z,0.84
2022-12-09T08:58:15.975Z,0.92
2022-12-09T09:00:38.444Z,1.00
2022-12-09T09:03:00.905Z,0.96
2022-12-09T09:05:23.856Z,0.96
2022-12-09T09:07:46.710Z,0.97
2022-12-09T09:10:10.215Z,0.99
2022-12-09T09:12:37.340Z,1.04
2022-12-09T09:15:03.524Z,1.06
2022-12-09T09:17:26.506Z,1.13
2022-12-09T09:19:49.509Z,1.19
2022-12-09T09:22:12.474Z,1.24
2022-12-09T09:24:35.159Z,1.17
2022-12-09T09:26:57.616Z,1.21
2022-12-09T09:29:21.312Z,1.25
2022-12-09T09:31:44.051Z,1.32
2022-12-09T09:34:06.743Z,1.34
2022-12-09T09:36:29.543Z,1.37
2022-12-09T09:38:55.070Z,1.42
2022-12-09T09:41:50.927Z,1.50
2022-12-09T09:44:25.683Z,1.50
2022-12-09T09:46:49.344Z,1.62
2022-12-09T09:49:40.698Z,1.73
2022-12-09T09:52:14.644Z,1.73
2022-12-09T09:54:37.122Z,1.82
2022-12-09T09:57:30.038Z,1.84
2022-12-09T10:00:11.289Z,1.88
2022-12-09T10:03:00.206Z,2.00
2022-12-09T10:05:29.231Z,2.11
2022-12-09T10:08:25.974Z,2.10
2022-12-09T10:11:12.864Z,2.19
2022-12-09T10:14:17.220Z,2.23
2022-12-09T10:16:49.471Z,2.29
2022-12-09T10:19:31.002Z,2.35
2022-12-09T10:21:54.721Z,2.39
2022-12-09T10:24:37.392Z,2.43
2022-12-09T10:27:38.212Z,2.54
2022-12-09T10:30:12.680Z,2.50
2022-12-09T10:32:36.853Z,2.52
2022-12-09T10:34:41.193Z,2.55
2022-12-09T10:36:44.771Z,2.44
2022-12-09T10:38:47.462Z,2.56
2022-12-09T10:41:07.322Z,2.57
2022-12-09T10:43:44.194Z,2.60
2022-12-09T10:48:33.645Z,2.61
2022-12-09T10:50:36.622Z,2.69
2022-12-09T10:52:44.509Z,2.74
2022-12-09T10:54:46.995Z,2.84
2022-12-09T10:57:15.129Z,2.92
2022-12-09T10:59:25.727Z,2.93
2022-12-09T11:01:28.798Z,3.04
2022-12-09T11:03:54.830Z,2.97
2022-12-09T11:06:00.914Z,2.90
2022-12-09T11:08:04.214Z,3.00
2022-12-09T11:10:19.892Z,3.09
2022-12-09T11:12:30.967Z,3.04
2022-12-09T11:14:39.765Z,2.88
2022-12-09T11:16:42.535Z,2.96
2022-12-09T11:18:48.255Z,2.88
2022-12-09T11:21:05.874Z,2.99
2022-12-09T11:23:18.129Z,2.97
2022-12-09T11:25:30.358Z,3.02
2022-12-09T11:27:34.085Z,3.09
2022-12-09T11:29:36.421Z,3.10
2022-12-09T11:31:39.062Z,3.20
2022-12-09T11:33:48.245Z,3.30
2022-12-09T11:35:54.890Z,3.69
2022-12-09T11:38:00.929Z,4.14
2022-12-09T11:40:02.945Z,4.40
2022-12-09T11:42:20.855Z,4.70
2022-12-09T11:44:32.561Z,4.92
2022-12-09T11:46:34.771Z,5.05
2022-12-09T11:48:43.261Z,5.15
2022-12-09T11:50:50.165Z,5.19
2022-12-09T11:53:10.907Z,5.16
2022-12-09T11:55:21.501Z,5.10
2022-12-09T11:57:48.268Z,5.16
2022-12-09T11:59:55.007Z,5.19
2022-12-09T12:02:23.319Z,4.96
2022-12-09T12:04:42.128Z,4.97
2022-12-09T12:07:05.303Z,4.97
2022-12-09T12:09:22.926Z,5.19
2022-12-09T12:11:34.174Z,5.31
2022-12-09T12:13:50.934Z,5.33
2022-12-09T12:16:07.260Z,5.07
2022-12-09T12:18:15.858Z,5.07
2022-12-09T12:20:18.294Z,5.03
2022-12-09T12:22:58.491Z,4.96
2022-12-09T12:25:32.774Z,5.05
2022-12-09T12:28:02.232Z,4.73
2022-12-09T12:30:09.529Z,4.64
2022-12-09T12:33:40.719Z,4.47
2022-12-09T12:35:39.617Z,4.29
2022-12-09T12:38:01.820Z,4.39
2022-12-09T12:40:28.915Z,4.30
2022-12-09T12:43:32.835Z,4.50
2022-12-09T12:46:17.299Z,4.42
2022-12-09T12:48:27.717Z,4.32
2022-12-09T12:51:04.053Z,4.15
2022-12-09T12:53:34.469Z,4.11
2022-12-09T12:56:01.897Z,4.02
2022-12-09T12:58:48.539Z,3.96
2022-12-09T13:01:31.343Z,3.90
2022-12-09T13:03:53.580Z,3.99
2022-12-09T13:05:56.782Z,3.73
2022-12-09T13:08:33.068Z,3.78
2022-12-09T13:10:42.373Z,3.70
2022-12-09T13:12:57.183Z,3.67
2022-12-09T13:15:00.395Z,3.48
2022-12-09T13:17:02.519Z,3.50
2022-12-09T13:19:24.585Z,3.45
2022-12-09T13:21:26.582Z,3.51
2022-12-09T13:24:19.682Z,3.50
2022-12-09T13:26:26.431Z,3.42
2022-12-09T13:28:56.475Z,3.29
2022-12-09T13:30:59.811Z,3.16
2022-12-09T13:33:44.442Z,3.13
2022-12-09T13:36:22.117Z,3.09
2022-12-09T13:38:42.566Z,3.02
2022-12-09T13:40:44.716Z,2.98
2022-12-09T13:42:53.940Z,2.87
2022-12-09T13:45:04.726Z,2.92
2022-12-09T13:47:37.010Z,2.94
2022-12-09T13:49:39.337Z,2.85
2022-12-09T13:51:48.186Z,2.82
2022-12-09T13:54:00.414Z,2.79
2022-12-09T13:56:24.008Z,2.73
2022-12-09T13:58:53.955Z,2.80
2022-12-09T14:01:32.787Z,2.79
2022-12-09T14:03:39.438Z,2.85
2022-12-09T14:05:41.433Z,2.78
2022-12-09T14:07:50.112Z,2.71
2022-12-09T14:09:57.132Z,2.64
2022-12-09T14:12:00.873Z,2.66
2022-12-09T14:14:27.807Z,2.60
2022-12-09T14:16:30.117Z,2.59
2022-12-09T14:18:33.123Z,2.56
2022-12-09T14:20:39.288Z,2.52
2022-12-09T14:22:41.435Z,2.48
2022-12-09T14:24:44.696Z,2.42
2022-12-09T14:27:08.320Z,2.37
2022-12-09T14:29:10.488Z,2.35
2022-12-09T14:31:12.945Z,2.21
2022-12-09T14:33:21.561Z,2.23
2022-12-09T14:35:41.706Z,2.17
2022-12-09T14:38:04.244Z,2.14
2022-12-09T14:40:15.267Z,2.12
2022-12-09T14:42:41.466Z,2.03
2022-12-09T14:44:52.886Z,2.00
2022-12-09T14:47:21.126Z,1.99
2022-12-09T14:49:28.851Z,1.99
2022-12-09T14:51:39.307Z,1.96
2022-12-09T14:53:41.676Z,1.97
2022-12-09T14:55:44.515Z,1.97
2022-12-09T14:57:47.804Z,2.00
2022-12-09T14:59:55.713Z,1.99
2022-12-09T15:02:08.831Z,1.97
2022-12-09T15:04:11.061Z,1.89
2022-12-09T15:06:17.816Z,1.85
2022-12-09T15:08:36.903Z,1.84
2022-12-09T15:10:39.175Z,1.83
2022-12-09T15:13:05.529Z,1.88
2022-12-09T15:15:19.150Z,1.88
2022-12-09T15:17:31.043Z,1.88
2022-12-09T15:21:55.448Z,1.73
2022-12-09T15:23:58.754Z,1.65
2022-12-09T15:26:22.583Z,1.68
2022-12-09T15:28:30.450Z,1.72
2022-12-09T15:30:37.536Z,1.67
2022-12-09T15:32:39.871Z,1.68
2022-12-09T15:34:42.204Z,1.61
2022-12-09T15:36:51.305Z,1.55
2022-12-09T15:38:57.961Z,1.43
2022-12-09T15:41:19.020Z,1.37
2022-12-09T15:43:21.403Z,1.31
2022-12-09T15:45:26.241Z,1.27
2022-12-09T15:48:15.566Z,1.21
2022-12-09T15:50:45.136Z,1.16
2022-12-09T15:53:10.651Z,1.22
2022-12-09T15:55:15.215Z,1.24
2022-12-09T15:57:18.472Z,1.17
2022-12-09T15:59:28.951Z,1.17
2022-12-09T16:01:32.879Z,1.19
2022-12-09T16:03:35.648Z,1.18
2022-12-09T16:05:41.875Z,1.18
2022-12-09T16:07:59.177Z,1.18
2022-12-09T16:10:56.857Z,1.16
2022-12-09T16:13:05.080Z,1.07
2022-12-09T16:15:10.220Z,1.04
2022-12-09T16:17:24.999Z,1.15
2022-12-09T16:19:41.323Z,1.16
2022-12-09T16:21:43.616Z,1.13
2022-12-09T16:23:48.755Z,1.11
2022-12-09T16:25:50.970Z,1.13
2022-12-09T16:28:02.129Z,1.16
2022-12-09T16:30:14.335Z,1.12
2022-12-09T16:32:17.930Z,1.12
2022-12-09T16:34:23.469Z,1.05
2022-12-09T16:36:55.572Z,0.98
2022-12-09T16:39:27.746Z,1.03
2022-12-09T16:41:51.202Z,1.01
2022-12-09T16:44:27.457Z,0.99
2022-12-09T16:46:49.798Z,0.89
2022-12-09T16:49:12.208Z,0.93
2022-12-09T16:51:34.523Z,0.95
2022-12-09T16:53:58.775Z,0.97
2022-12-09T16:56:30.009Z,0.95
2022-12-09T16:58:52.876Z,0.91
2022-12-09T17:01:16.610Z,0.88
2022-12-09T17:03:43.618Z,0.85
2022-12-09T17:06:06.441Z,0.87
2022-12-09T17:08:28.794Z,0.81
2022-12-09T17:10:51.297Z,0.84
2022-12-09T17:13:13.645Z,0.86
2022-12-09T17:15:35.985Z,0.84
2022-12-09T17:17:58.376Z,0.80
2022-12-09T17:20:20.779Z,0.83
2022-12-09T17:22:43.146Z,0.79
2022-12-09T17:25:06.273Z,0.80
2022-12-09T17:27:28.743Z,0.85
2022-12-09T17:29:51.061Z,0.80
2022-12-09T17:32:13.613Z,0.75
2022-12-09T17:34:36.027Z,0.76
2022-12-09T17:36:58.519Z,0.75
2022-12-09T17:39:20.874Z,0.76
2022-12-09T17:41:43.427Z,0.77
2022-12-09T17:44:06.024Z,0.75
2022-12-09T17:46:28.505Z,0.78
2022-12-09T17:48:50.792Z,0.70
2022-12-09T17:51:14.818Z,0.74
2022-12-09T17:53:38.430Z,0.69
2022-12-09T17:56:08.718Z,0.69
2022-12-09T17:58:31.039Z,0.67
2022-12-09T18:00:53.374Z,0.63
2022-12-09T18:03:27.358Z,0.64
2022-12-09T18:05:59.796Z,0.55
2022-12-09T18:08:22.188Z,0.63
2022-12-09T18:10:44.653Z,0.62
2022-12-09T18:13:07.036Z,0.65
2022-12-09T18:15:29.331Z,0.56
2022-12-09T18:17:51.674Z,0.56
2022-12-09T18:20:14.096Z,0.53
2022-12-09T18:22:36.436Z,0.52
2022-12-09T18:24:58.755Z,0.55
2022-12-09T18:27:21.123Z,0.58
2022-12-09T18:29:43.486Z,0.60
2022-12-09T18:32:05.978Z,0.55
2022-12-09T18:34:29.054Z,0.53
2022-12-09T18:36:51.619Z,0.57
2022-12-09T18:39:16.354Z,0.58
2022-12-09T18:41:38.780Z,0.58
2022-12-09T18:44:03.348Z,0.48
2022-12-09T18:46:35.369Z,0.45
2022-12-09T18:49:08.278Z,0.38
2022-12-09T18:51:31.329Z,0.40
2022-12-09T18:53:53.793Z,0.46
2022-12-09T18:56:16.677Z,0.42
2022-12-09T18:59:04.712Z,0.41
2022-12-09T19:01:31.013Z,0.40
2022-12-09T19:03:54.776Z,0.44
2022-12-09T19:06:28.899Z,0.43
2022-12-09T19:08:55.162Z,0.43
2022-12-09T19:11:17.491Z,0.32
2022-12-09T19:13:39.811Z,0.30
2022-12-09T19:16:06.209Z,0.27
2022-12-09T19:18:28.584Z,0.32
2022-12-09T19:20:51.272Z,0.39
2022-12-09T19:23:13.624Z,0.39
2022-12-09T19:25:41.451Z,0.35
2022-12-09T19:28:03.863Z,0.33
2022-12-09T19:30:26.237Z,0.39
2022-12-09T19:32:53.202Z,0.34
2022-12-09T19:35:16.159Z,0.31
2022-12-09T19:37:38.472Z,0.25
2022-12-09T19:40:00.864Z,0.29
2022-12-09T19:42:23.212Z,0.32
2022-12-09T19:45:01.032Z,0.28
2022-12-09T19:47:24.471Z,0.15
2022-12-09T19:49:46.784Z,0.25
2022-12-09T19:52:09.186Z,0.20
2022-12-09T19:54:31.565Z,0.10
2022-12-09T19:56:53.875Z,0.18
2022-12-09T19:59:16.217Z,0.14
2022-12-09T20:01:41.643Z,0.18
2022-12-09T20:04:46.993Z,0.24
2022-12-09T20:06:59.302Z,0.21
2022-12-09T20:09:24.570Z,0.24
2022-12-09T20:11:46.838Z,0.24
2022-12-09T20:14:11.865Z,0.25
2022-12-09T20:16:34.374Z,0.29
2022-12-09T20:18:57.845Z,0.26
2022-12-09T20:21:20.803Z,0.28
2022-12-09T20:23:35.563Z,0.27
2022-12-09T20:25:37.673Z,0.28
2022-12-09T20:27:39.659Z,0.31
2022-12-09T20:29:42.055Z,0.29
2022-12-09T20:31:44.369Z,0.29
2022-12-09T20:33:46.984Z,0.31
2022-12-09T20:35:49.415Z,0.30
2022-12-09T20:37:51.603Z,0.30
2022-12-09T20:39:53.829Z,0.24
2022-12-09T20:41:56.207Z,0.21
2022-12-09T20:43:59.754Z,0.21
2022-12-09T20:46:08.833Z,0.25
2022-12-09T20:48:11.104Z,0.25
2022-12-09T20:50:13.252Z,0.21
2022-12-09T20:52:15.389Z,0.26
2022-12-09T20:54:17.485Z,0.32
2022-12-09T20:56:20.450Z,0.31
2022-12-09T20:58:23.400Z,0.28
2022-12-09T21:00:25.646Z,0.25
2022-12-09T21:02:28.127Z,0.21
2022-12-09T21:04:30.700Z,0.26
2022-12-09T21:06:36.066Z,0.25
2022-12-09T21:08:38.325Z,0.27
2022-12-09T21:10:43.303Z,0.27
2022-12-09T21:12:45.376Z,0.25
2022-12-09T21:14:47.578Z,0.20
2022-12-09T21:16:52.615Z,0.20
2022-12-09T21:18:57.299Z,0.20
2022-12-09T21:20:59.480Z,0.19
2022-12-09T21:23:32.271Z,0.22
2022-12-09T21:25:23.981Z,0.20
2022-12-09T21:27:26.339Z,0.19
2022-12-09T21:29:32.131Z,0.17
2022-12-09T21:31:36.223Z,0.15
2022-12-09T21:33:38.974Z,0.17
2022-12-09T21:35:45.373Z,0.22
2022-12-09T21:37:50.668Z,0.21
2022-12-09T21:39:57.051Z,0.24
2022-12-09T21:41:59.701Z,0.22
2022-12-09T21:44:01.953Z,0.19
2022-12-09T21:46:06.246Z,0.16
2022-12-09T21:48:08.330Z,0.15
2022-12-09T21:50:10.899Z,0.17
2022-12-09T21:52:13.227Z,0.17
2022-12-09T21:54:15.714Z,0.15
2022-12-09T21:56:22.241Z,0.19
2022-12-09T21:58:24.443Z,0.21
2022-12-09T22:00:26.689Z,0.20
2022-12-09T22:02:28.952Z,0.20
2022-12-09T22:04:31.125Z,0.19
2022-12-09T22:06:33.650Z,0.21
2022-12-09T22:08:36.243Z,0.21
2022-12-09T22:10:38.367Z,0.17
2022-12-09T22:12:41.509Z,0.13
2022-12-09T22:14:43.609Z,0.08
2022-12-09T22:16:46.508Z,0.09
2022-12-09T22:18:49.094Z,0.14
2022-12-09T22:23:13.585Z,0.10
2022-12-09T22:25:15.888Z,0.13
2022-12-09T22:27:18.214Z,0.10
2022-12-09T22:29:20.334Z,0.07
2022-12-09T22:31:28.651Z,0.11
2022-12-09T22:33:30.937Z,0.04
2022-12-09T22:35:33.436Z,0.03
2022-12-09T22:37:43.459Z,0.03
2022-12-09T22:39:46.215Z,-0.01
2022-12-09T22:41:48.638Z,0.05
2022-12-09T22:43:51.240Z,0.07
2022-12-09T22:45:53.627Z,0.01
2022-12-09T22:47:55.988Z,-0.04
2022-12-09T22:49:58.251Z,-0.01
2022-12-09T22:52:00.976Z,-0.07
2022-12-09T22:54:05.380Z,-0.08
2022-12-09T22:56:08.361Z,-0.08
2022-12-09T22:58:10.776Z,-0.09
2022-12-09T23:00:13.304Z,-0.01
2022-12-09T23:02:15.366Z,-0.03
2022-12-09T23:04:19.099Z,-0.12
2022-12-09T23:06:21.505Z,-0.09
2022-12-09T23:08:23.947Z,-0.09
2022-12-09T23:10:26.231Z,-0.06
2022-12-09T23:12:28.475Z,-0.10
2022-12-09T23:14:30.767Z,-0.07
2022-12-09T23:16:32.963Z,-0.07
2022-12-09T23:18:35.498Z,-0.05
2022-12-09T23:20:37.618Z,-0.06
2022-12-09T23:22:39.950Z,-0.06
2022-12-09T23:24:42.024Z,-0.06
2022-12-09T23:26:44.254Z,-0.05
2022-12-09T23:28:48.899Z,-0.07
2022-12-09T23:31:11.080Z,-0.15
2022-12-09T23:33:32.905Z,-0.11
2022-12-09T23:35:55.224Z,-0.05
2022-12-09T23:38:17.758Z,-0.06
2022-12-09T23:40:40.050Z,-0.02
2022-12-09T23:43:02.365Z,-0.04
2022-12-09T23:45:24.772Z,-0.03
2022-12-09T23:47:47.110Z,-0.11
2022-12-09T23:50:10.275Z,-0.05
2022-12-09T23:52:36.424Z,-0.13
2022-12-09T23:55:04.051Z,-0.14
2022-12-09T23:57:26.898Z,-0.11
2022-12-09T23:59:49.937Z,-0.07
